createdAt,value
2022-11-11T00:00:43.104Z,25.51
2022-11-11T00:03:32.905Z,25.49
2022-11-11T00:06:21.911Z,25.45
2022-11-11T00:09:11.717Z,25.44
2022-11-11T00:12:00.671Z,25.44
2022-11-11T00:14:49.717Z,25.45
2022-11-11T00:17:59.713Z,25.43
2022-11-11T00:21:08.303Z,25.44
2022-11-11T00:24:14.597Z,25.45
2022-11-11T00:27:05.538Z,25.45
2022-11-11T00:29:54.323Z,25.46
2022-11-11T00:32:44.370Z,25.43
2022-11-11T00:35:50.442Z,25.44
2022-11-11T00:38:49.609Z,25.46
2022-11-11T00:41:38.452Z,25.46
2022-11-11T00:44:27.130Z,25.45
2022-11-11T00:47:32.484Z,25.41
2022-11-11T00:50:41.593Z,25.43
2022-11-11T00:53:32.895Z,25.43
2022-11-11T00:56:21.677Z,25.42
2022-11-11T00:59:11.115Z,25.45
2022-11-11T01:01:59.827Z,25.43
2022-11-11T01:04:48.595Z,25.43
2022-11-11T01:07:38.709Z,25.42
2022-11-11T01:10:40.084Z,25.40
2022-11-11T01:13:31.210Z,25.42
2022-11-11T01:16:21.929Z,25.43
2022-11-11T01:19:10.750Z,25.40
2022-11-11T01:21:59.526Z,25.39
2022-11-11T01:24:49.860Z,25.38
2022-11-11T01:27:38.681Z,25.40
2022-11-11T01:30:27.672Z,25.41
2022-11-11T01:33:16.538Z,25.40
2022-11-11T01:36:09.995Z,25.42
2022-11-11T01:39:00.301Z,25.41
2022-11-11T01:41:50.669Z,25.38
2022-11-11T01:44:46.522Z,25.38
2022-11-11T01:48:16.642Z,25.38
2022-11-11T01:50:59.698Z,25.36
2022-11-11T01:53:52.521Z,25.35
2022-11-11T01:56:42.786Z,25.38
2022-11-11T01:59:33.228Z,25.36
2022-11-11T02:02:24.571Z,25.39
2022-11-11T02:05:32.907Z,25.40
2022-11-11T02:08:33.611Z,25.39
2022-11-11T02:11:38.273Z,25.40
2022-11-11T02:14:40.409Z,25.37
2022-11-11T02:17:33.372Z,25.39
2022-11-11T02:20:25.318Z,25.40
2022-11-11T02:23:17.351Z,25.40
2022-11-11T02:26:08.443Z,25.38
2022-11-11T02:28:57.665Z,25.39
2022-11-11T02:31:46.581Z,25.38
2022-11-11T02:34:36.066Z,25.39
2022-11-11T02:37:26.176Z,25.37
2022-11-11T02:40:16.617Z,25.36
2022-11-11T02:43:07.534Z,25.36
2022-11-11T02:45:56.685Z,25.41
2022-11-11T02:48:45.666Z,25.39
2022-11-11T02:51:34.552Z,25.40
2022-11-11T02:54:23.435Z,25.39
2022-11-11T02:57:12.431Z,25.41
2022-11-11T03:00:03.124Z,25.41
2022-11-11T03:02:51.819Z,25.38
2022-11-11T03:05:40.464Z,25.37
2022-11-11T03:08:29.268Z,25.36
2022-11-11T03:11:27.979Z,25.37
2022-11-11T03:14:16.902Z,25.34
2022-11-11T03:17:24.565Z,25.33
2022-11-11T03:20:32.166Z,25.35
2022-11-11T03:23:20.817Z,25.34
2022-11-11T03:26:10.103Z,25.34
2022-11-11T03:28:58.880Z,25.34
2022-11-11T03:31:47.524Z,25.33
2022-11-11T03:34:37.593Z,25.34
2022-11-11T03:37:45.107Z,25.33
2022-11-11T03:40:33.708Z,25.31
2022-11-11T03:43:23.945Z,25.34
2022-11-11T03:46:12.738Z,25.33
2022-11-11T03:49:01.348Z,25.32
2022-11-11T03:51:51.353Z,25.30
2022-11-11T03:54:40.061Z,25.37
2022-11-11T03:57:31.741Z,25.32
2022-11-11T04:00:23.523Z,25.31
2022-11-11T04:03:30.865Z,25.30
2022-11-11T04:06:37.078Z,25.32
2022-11-11T04:09:44.503Z,25.35
2022-11-11T04:12:53.644Z,25.30
2022-11-11T04:15:59.992Z,25.31
2022-11-11T04:19:06.344Z,25.30
2022-11-11T04:21:55.095Z,25.29
2022-11-11T04:25:03.001Z,25.27
2022-11-11T04:28:11.768Z,25.29
2022-11-11T04:30:59.419Z,25.30
2022-11-11T04:33:48.034Z,25.28
2022-11-11T04:36:36.717Z,25.28
2022-11-11T04:39:42.828Z,25.29
2022-11-11T04:42:34.163Z,25.30
2022-11-11T04:45:27.939Z,25.29
2022-11-11T04:48:18.198Z,25.28
2022-11-11T04:51:07.195Z,25.26
2022-11-11T04:53:55.831Z,25.25
2022-11-11T04:56:50.236Z,25.25
2022-11-11T04:59:40.271Z,25.28
2022-11-11T05:02:46.715Z,25.30
2022-11-11T05:05:55.769Z,25.29
2022-11-11T05:08:57.181Z,25.31
2022-11-11T05:11:45.882Z,25.30
2022-11-11T05:14:52.002Z,25.30
2022-11-11T05:17:59.423Z,25.28
2022-11-11T05:21:22.169Z,25.30
2022-11-11T05:24:28.544Z,25.32
2022-11-11T05:27:17.199Z,25.37
2022-11-11T05:30:07.362Z,25.35
2022-11-11T05:32:57.840Z,25.30
2022-11-11T05:35:46.472Z,25.31
2022-11-11T05:38:35.078Z,25.30
2022-11-11T05:41:23.768Z,25.29
2022-11-11T05:44:12.391Z,25.38
2022-11-11T05:47:02.607Z,25.45
2022-11-11T05:49:52.641Z,25.50
2022-11-11T05:52:41.351Z,25.50
2022-11-11T05:55:30.069Z,25.61
2022-11-11T05:58:19.243Z,25.57
2022-11-11T06:01:07.999Z,25.52
2022-11-11T06:03:56.547Z,25.51
2022-11-11T06:06:46.698Z,25.49
2022-11-11T06:09:36.111Z,25.51
2022-11-11T06:12:24.807Z,25.47
2022-11-11T06:15:13.430Z,25.56
2022-11-11T06:18:02.373Z,25.48
2022-11-11T06:20:54.690Z,25.51
2022-11-11T06:23:46.233Z,25.58
2022-11-11T06:26:35.202Z,25.56
2022-11-11T06:29:23.833Z,25.47
2022-11-11T06:32:12.454Z,25.50
2022-11-11T06:35:01.442Z,25.44
2022-11-11T06:37:50.103Z,25.40
2022-11-11T06:40:40.460Z,25.37
2022-11-11T06:43:29.290Z,25.39
2022-11-11T06:46:22.438Z,25.37
2022-11-11T06:49:10.980Z,25.35
2022-11-11T06:51:59.538Z,25.34
2022-11-11T06:54:48.196Z,25.32
2022-11-11T06:57:38.702Z,25.30
2022-11-11T07:00:27.308Z,25.28
2022-11-11T07:03:21.460Z,25.33
2022-11-11T07:06:12.959Z,25.27
2022-11-11T07:09:01.683Z,25.25
2022-11-11T07:11:50.412Z,25.25
2022-11-11T07:14:40.457Z,25.27
2022-11-11T07:17:29.110Z,25.24
2022-11-11T07:20:17.884Z,25.21
2022-11-11T07:23:07.109Z,25.25
2022-11-11T07:25:55.795Z,25.22
2022-11-11T07:28:44.465Z,25.37
2022-11-11T07:31:34.626Z,25.31
2022-11-11T07:34:23.346Z,25.29
2022-11-11T07:37:12.685Z,25.29
2022-11-11T07:40:01.338Z,25.28
2022-11-11T07:42:50.000Z,25.34
2022-11-11T07:45:38.661Z,25.33
2022-11-11T07:48:28.702Z,25.30
2022-11-11T07:51:17.336Z,25.28
2022-11-11T07:54:08.435Z,25.27
2022-11-11T07:56:57.023Z,25.27
2022-11-11T07:59:45.580Z,25.25
2022-11-11T08:02:34.378Z,25.25
2022-11-11T08:05:24.485Z,25.26
2022-11-11T08:08:13.355Z,25.25
2022-11-11T08:11:01.890Z,25.27
2022-11-11T08:13:51.214Z,25.25
2022-11-11T08:16:39.765Z,25.25
2022-11-11T08:19:28.437Z,25.27
2022-11-11T08:22:18.462Z,25.27
2022-11-11T08:25:09.352Z,25.27
2022-11-11T08:27:59.225Z,25.29
2022-11-11T08:30:48.850Z,25.27
2022-11-11T08:33:37.831Z,25.25
2022-11-11T08:36:26.755Z,25.27
2022-11-11T08:39:16.794Z,25.25
2022-11-11T08:42:05.985Z,25.24
2022-11-11T08:44:54.614Z,25.27
2022-11-11T08:47:46.254Z,25.27
2022-11-11T08:50:34.994Z,25.28
2022-11-11T08:53:23.903Z,25.27
2022-11-11T08:56:14.227Z,25.28
2022-11-11T08:59:02.824Z,25.27
2022-11-11T09:01:51.451Z,25.28
2022-11-11T09:04:45.147Z,25.27
2022-11-11T09:07:34.969Z,25.25
2022-11-11T09:10:23.617Z,25.29
2022-11-11T09:13:13.818Z,25.30
2022-11-11T09:16:02.440Z,25.29
2022-11-11T09:18:51.070Z,25.31
2022-11-11T09:21:39.788Z,25.33
2022-11-11T09:24:28.460Z,25.33
2022-11-11T09:27:17.191Z,25.33
2022-11-11T09:30:11.998Z,25.36
2022-11-11T09:33:03.512Z,25.40
2022-11-11T09:35:52.144Z,25.41
2022-11-11T09:38:43.469Z,25.41
2022-11-11T09:41:40.657Z,25.44
2022-11-11T09:44:43.742Z,25.44
2022-11-11T09:47:37.348Z,25.42
2022-11-11T09:50:27.281Z,25.45
2022-11-11T09:53:21.154Z,25.43
2022-11-11T09:56:30.145Z,25.45
2022-11-11T09:59:23.206Z,25.42
2022-11-11T10:02:20.602Z,25.41
2022-11-11T10:05:13.000Z,25.41
2022-11-11T10:08:03.884Z,25.41
2022-11-11T10:10:53.899Z,25.42
2022-11-11T10:13:42.469Z,25.42
2022-11-11T10:16:41.083Z,25.39
2022-11-11T10:19:32.041Z,25.43
2022-11-11T10:22:27.496Z,25.42
2022-11-11T10:25:22.318Z,25.43
2022-11-11T10:28:17.329Z,25.44
2022-11-11T10:31:11.315Z,25.47
2022-11-11T10:34:02.319Z,25.52
2022-11-11T10:36:53.057Z,25.54
2022-11-11T10:39:53.863Z,25.54
2022-11-11T10:42:44.128Z,25.51
2022-11-11T10:45:41.572Z,25.52
2022-11-11T10:48:42.238Z,25.53
2022-11-11T10:51:35.144Z,25.51
2022-11-11T10:54:27.963Z,25.49
2022-11-11T10:57:22.632Z,25.50
2022-11-11T11:00:14.062Z,25.51
2022-11-11T11:03:10.791Z,25.52
2022-11-11T11:06:04.738Z,25.51
2022-11-11T11:08:55.034Z,25.55
2022-11-11T11:11:47.467Z,25.55
2022-11-11T11:14:41.507Z,25.54
2022-11-11T11:17:34.595Z,25.62
2022-11-11T11:20:24.289Z,25.63
2022-11-11T11:23:13.151Z,25.62
2022-11-11T11:26:02.940Z,25.66
2022-11-11T11:28:56.661Z,25.64
2022-11-11T11:31:47.827Z,25.61
2022-11-11T11:34:48.667Z,25.65
2022-11-11T11:37:51.323Z,25.62
2022-11-11T11:40:51.147Z,25.65
2022-11-11T11:43:42.767Z,25.63
2022-11-11T11:46:34.886Z,25.65
2022-11-11T11:49:31.464Z,25.64
2022-11-11T11:52:23.390Z,25.65
2022-11-11T11:55:15.991Z,25.65
2022-11-11T11:58:25.350Z,25.65
2022-11-11T12:01:18.796Z,25.66
2022-11-11T12:04:36.321Z,25.66
2022-11-11T12:07:46.940Z,25.71
2022-11-11T12:10:43.798Z,25.73
2022-11-11T12:13:38.679Z,25.74
2022-11-11T12:16:29.036Z,25.80
2022-11-11T12:19:32.036Z,25.81
2022-11-11T12:22:34.187Z,25.92
2022-11-11T12:25:32.968Z,25.86
2022-11-11T12:28:32.455Z,25.83
2022-11-11T12:31:30.290Z,25.76
2022-11-11T12:34:25.558Z,25.77
2022-11-11T12:37:22.229Z,25.72
2022-11-11T12:40:21.825Z,25.64
2022-11-11T12:43:18.365Z,25.59
2022-11-11T12:46:13.503Z,25.53
2022-11-11T12:49:08.721Z,25.51
2022-11-11T12:52:01.581Z,25.55
2022-11-11T12:55:01.939Z,25.51
2022-11-11T12:58:02.094Z,25.39
2022-11-11T13:01:00.256Z,25.40
2022-11-11T13:04:21.270Z,25.36
2022-11-11T13:07:33.548Z,25.25
2022-11-11T13:10:32.094Z,25.46
2022-11-11T13:13:36.979Z,25.40
2022-11-11T13:16:27.273Z,25.36
2022-11-11T13:19:20.839Z,25.34
2022-11-11T13:22:16.960Z,25.36
2022-11-11T13:25:09.971Z,25.31
2022-11-11T13:28:03.731Z,25.29
2022-11-11T13:31:04.299Z,25.31
2022-11-11T13:33:55.251Z,25.31
2022-11-11T13:36:45.937Z,25.29
2022-11-11T13:39:37.477Z,25.31
2022-11-11T13:42:29.143Z,25.35
2022-11-11T13:45:28.079Z,25.32
2022-11-11T13:48:22.804Z,25.35
2022-11-11T13:51:14.497Z,25.33
2022-11-11T13:54:07.197Z,25.35
2022-11-11T13:57:03.739Z,25.34
2022-11-11T13:59:59.686Z,25.44
2022-11-11T14:03:30.893Z,25.40
2022-11-11T14:07:02.494Z,25.36
2022-11-11T14:10:03.852Z,25.31
2022-11-11T14:12:53.111Z,25.37
2022-11-11T14:15:43.885Z,25.45
2022-11-11T14:18:39.884Z,25.53
2022-11-11T14:21:54.455Z,25.44
2022-11-11T14:24:47.850Z,25.47
2022-11-11T14:27:39.593Z,25.41
2022-11-11T14:30:38.857Z,25.38
2022-11-11T14:33:45.577Z,25.37
2022-11-11T14:36:41.025Z,25.40
2022-11-11T14:39:39.496Z,25.36
2022-11-11T14:42:47.020Z,25.31
2022-11-11T14:46:02.614Z,25.33
2022-11-11T14:49:03.397Z,25.31
2022-11-11T14:52:01.004Z,25.40
2022-11-11T14:54:56.796Z,25.35
2022-11-11T14:57:51.675Z,25.39
2022-11-11T15:00:47.694Z,25.35
2022-11-11T15:03:42.285Z,25.33
2022-11-11T15:06:37.125Z,25.31
2022-11-11T15:09:42.452Z,25.29
2022-11-11T15:12:42.316Z,25.25
2022-11-11T15:15:37.704Z,25.29
2022-11-11T15:18:43.009Z,25.28
2022-11-11T15:21:36.446Z,25.29
2022-11-11T15:24:33.473Z,25.31
2022-11-11T15:27:31.716Z,25.27
2022-11-11T15:30:22.430Z,25.28
2022-11-11T15:33:14.784Z,25.29
2022-11-11T15:36:11.273Z,25.29
2022-11-11T15:39:06.498Z,25.28
2022-11-11T15:41:55.375Z,25.26
2022-11-11T15:44:46.065Z,25.25
2022-11-11T15:47:37.483Z,25.25
2022-11-11T15:50:36.056Z,25.21
2022-11-11T15:53:26.413Z,25.21
2022-11-11T15:56:30.409Z,25.22
2022-11-11T15:59:20.475Z,25.19
2022-11-11T16:02:10.114Z,25.19
2022-11-11T16:05:00.763Z,25.17
2022-11-11T16:07:54.962Z,25.16
2022-11-11T16:10:46.290Z,25.20
2022-11-11T16:13:38.928Z,25.16
2022-11-11T16:16:32.680Z,25.18
2022-11-11T16:19:31.593Z,25.16
2022-11-11T16:22:22.926Z,25.18
2022-11-11T16:25:16.217Z,25.17
2022-11-11T16:28:05.813Z,25.17
2022-11-11T16:30:55.873Z,25.18
2022-11-11T16:33:44.563Z,25.17
2022-11-11T16:36:33.185Z,25.16
2022-11-11T16:39:22.840Z,25.17
2022-11-11T16:42:20.021Z,25.17
2022-11-11T16:45:20.658Z,25.16
2022-11-11T16:48:40.620Z,25.16
2022-11-11T16:51:40.491Z,25.15
2022-11-11T16:54:30.224Z,25.15
2022-11-11T16:57:19.940Z,25.14
2022-11-11T17:00:14.274Z,25.17
2022-11-11T17:03:14.992Z,25.15
2022-11-11T17:06:07.875Z,25.14
2022-11-11T17:08:56.815Z,25.15
2022-11-11T17:11:46.774Z,25.14
2022-11-11T17:14:37.550Z,25.14
2022-11-11T17:17:26.197Z,25.14
2022-11-11T17:20:18.047Z,25.12
2022-11-11T17:23:07.280Z,25.14
2022-11-11T17:25:56.870Z,25.12
2022-11-11T17:28:45.713Z,25.13
2022-11-11T17:31:34.328Z,25.13
2022-11-11T17:34:22.945Z,25.12
2022-11-11T17:37:12.926Z,25.11
2022-11-11T17:40:01.558Z,25.12
2022-11-11T17:42:50.159Z,25.10
2022-11-11T17:45:38.893Z,25.10
2022-11-11T17:48:27.854Z,25.10
2022-11-11T17:51:16.430Z,25.11
2022-11-11T17:54:09.716Z,25.12
2022-11-11T17:56:58.555Z,25.12
2022-11-11T17:59:47.183Z,25.13
2022-11-11T18:02:35.752Z,25.13
2022-11-11T18:05:24.419Z,25.11
2022-11-11T18:08:13.045Z,25.13
2022-11-11T18:11:04.160Z,25.12
2022-11-11T18:13:53.810Z,25.17
2022-11-11T18:16:42.420Z,25.13
2022-11-11T18:19:31.096Z,25.13
2022-11-11T18:22:19.649Z,25.16
2022-11-11T18:25:08.757Z,25.13
2022-11-11T18:27:58.743Z,25.14
2022-11-11T18:30:47.391Z,25.14
2022-11-11T18:33:36.384Z,25.12
2022-11-11T18:36:24.947Z,25.14
2022-11-11T18:39:13.610Z,25.13
2022-11-11T18:42:02.142Z,25.13
2022-11-11T18:44:52.132Z,25.09
2022-11-11T18:47:40.734Z,25.15
2022-11-11T18:50:29.290Z,25.12
2022-11-11T18:53:18.119Z,25.12
2022-11-11T18:56:08.820Z,25.13
2022-11-11T18:58:59.074Z,25.10
2022-11-11T19:01:54.288Z,25.13
2022-11-11T19:04:43.490Z,25.11
2022-11-11T19:07:32.127Z,25.09
2022-11-11T19:10:21.212Z,25.07
2022-11-11T19:13:09.796Z,25.08
2022-11-11T19:15:59.374Z,25.10
2022-11-11T19:18:49.408Z,25.10
2022-11-11T19:21:39.777Z,25.12
2022-11-11T19:24:33.563Z,25.08
2022-11-11T19:27:22.520Z,25.08
2022-11-11T19:30:12.222Z,25.09
2022-11-11T19:33:01.717Z,25.08
2022-11-11T19:36:02.009Z,25.06
2022-11-11T19:38:50.879Z,25.04
2022-11-11T19:41:39.462Z,25.05
2022-11-11T19:44:28.113Z,25.06
2022-11-11T19:47:16.880Z,25.05
2022-11-11T19:50:05.838Z,25.07
2022-11-11T19:52:55.796Z,25.03
2022-11-11T19:55:44.488Z,25.04
2022-11-11T19:58:33.429Z,25.05
2022-11-11T20:01:23.407Z,25.06
2022-11-11T20:04:12.040Z,25.06
2022-11-11T20:07:00.664Z,25.06
2022-11-11T20:09:50.596Z,25.08
2022-11-11T20:12:39.231Z,25.08
2022-11-11T20:15:27.837Z,25.05
2022-11-11T20:18:17.543Z,25.05
2022-11-11T20:21:08.234Z,25.06
2022-11-11T20:23:57.255Z,25.21
2022-11-11T20:26:51.898Z,25.29
2022-11-11T20:29:41.043Z,25.32
2022-11-11T20:32:30.422Z,25.34
2022-11-11T20:35:19.124Z,25.30
2022-11-11T20:38:07.754Z,25.27
2022-11-11T20:40:59.968Z,25.25
2022-11-11T20:43:50.074Z,25.18
2022-11-11T20:46:38.628Z,25.16
2022-11-11T20:49:27.419Z,25.22
2022-11-11T20:52:16.052Z,25.18
2022-11-11T20:55:04.895Z,25.17
2022-11-11T20:57:53.554Z,25.18
2022-11-11T21:00:43.539Z,25.16
2022-11-11T21:03:32.528Z,25.17
2022-11-11T21:06:21.156Z,25.16
2022-11-11T21:09:12.024Z,25.15
2022-11-11T21:12:00.633Z,25.18
2022-11-11T21:14:49.254Z,25.31
2022-11-11T21:17:39.250Z,25.25
2022-11-11T21:20:27.946Z,25.23
2022-11-11T21:23:17.618Z,25.23
2022-11-11T21:26:07.149Z,25.22
2022-11-11T21:28:55.856Z,25.23
2022-11-11T21:31:45.545Z,25.24
2022-11-11T21:34:35.537Z,25.27
2022-11-11T21:37:24.149Z,25.30
2022-11-11T21:40:13.943Z,25.29
2022-11-11T21:43:06.380Z,25.30
2022-11-11T21:45:54.995Z,25.35
2022-11-11T21:48:43.872Z,25.34
2022-11-11T21:51:35.478Z,25.32
2022-11-11T21:54:24.105Z,25.30
2022-11-11T21:57:12.641Z,25.31
2022-11-11T22:00:01.225Z,25.30
2022-11-11T22:02:49.807Z,25.33
2022-11-11T22:05:38.414Z,25.30
2022-11-11T22:08:28.763Z,25.28
2022-11-11T22:11:20.257Z,25.29
2022-11-11T22:14:08.835Z,25.26
2022-11-11T22:16:57.583Z,25.25
2022-11-11T22:19:46.175Z,25.26
2022-11-11T22:22:35.200Z,25.25
2022-11-11T22:25:27.480Z,25.25
2022-11-11T22:28:16.276Z,25.26
2022-11-11T22:31:06.547Z,25.27
2022-11-11T22:33:57.140Z,25.26
2022-11-11T22:36:45.826Z,25.25
2022-11-11T22:39:34.443Z,25.23
2022-11-11T22:42:24.371Z,25.25
2022-11-11T22:45:13.610Z,25.27
2022-11-11T22:48:02.237Z,25.26
2022-11-11T22:50:50.970Z,25.27
2022-11-11T22:53:40.269Z,25.26
2022-11-11T22:56:29.900Z,25.27
2022-11-11T22:59:19.959Z,25.23
2022-11-11T23:02:08.630Z,25.25
2022-11-11T23:04:57.188Z,25.26
2022-11-11T23:07:45.821Z,25.24
2022-11-11T23:10:34.380Z,25.23
2022-11-11T23:13:23.114Z,25.23
2022-11-11T23:16:14.768Z,25.25
2022-11-11T23:19:04.786Z,25.23
2022-11-11T23:21:53.438Z,25.23
2022-11-11T23:24:42.050Z,25.26
2022-11-11T23:27:30.613Z,25.22
2022-11-11T23:30:19.390Z,25.20
2022-11-11T23:33:09.409Z,25.23
2022-11-11T23:36:00.812Z,25.23
2022-11-11T23:38:49.887Z,25.23
2022-11-11T23:41:38.537Z,25.27
2022-11-11T23:44:27.315Z,25.25
2022-11-11T23:47:15.915Z,25.21
2022-11-11T23:50:06.496Z,25.22
2022-11-11T23:52:55.091Z,25.22
2022-11-11T23:55:43.883Z,25.23
2022-11-11T23:58:32.727Z,25.23
